Terminal Aerodrome Forecast
Issued by NWS Wilmington, OH

Current Version | Previous Version | Graphics & Text | Print | Product List | Glossary On
Versions: 1 2 3 4 5 6 7 8 9 10 11 12 13 14 15 16 17 18 19 20 21 22 23 24 25 26 27 28 29 30 31 32 33 34
723
FTUS41 KILN 290657 AAB
TAFILN
TAF AMD
KILN 290657Z 2907/3006 VRB03KT 1/4SM FG VV001
     FM291200 VRB03KT 1SM BR OVC003
     FM291500 04005KT 4SM BR OVC010
     FM291700 04005KT P6SM OVC020
     FM291900 03004KT P6SM VCSH SCT025 BKN040=

USA.gov is the U.S. government's official web portal to all federal, state and local government web resources and services.